Monte Toledo — CQRA — position and weather

sailwx.info

Track history (hours):
 
Tides and Currents Weather Stations Pressure Air Temp Water Temp Dewpoint Dewpoint Depression Visibility Wind Speed Wind Dir Waves Ship Positions

Monte Toledo

Last reported at 2016-Dec-01 22:33 UTC. Time now 2016-Dec-07 12:27 UTC.
Position S 04°53' E 011°03'.

Length 274 m; draft 14.4 m.

Type: Tanker. MMSI: 255740000.

Date/timePositionNaut miles runAvg speedWind from/ knotsBaromVisibWave heightAir tempDewpointWater temp
2016-Dec-01 22:33S 04°53' E 011°03'1313.1
2016-Dec-01 21:33S 04°59' E 011°15'1313.1
2016-Dec-01 20:32S 05°04' E 011°27'1313.0
2016-Dec-01 19:33S 05°12' E 011°37'  
2016-Nov-29 06:33S 05°28' E 011°56'21 2.2
2016-Nov-28 21:19S 05°14' E 011°41'1013.4
2016-Nov-28 20:33S 05°08' E 011°32'1313.5
2016-Nov-28 19:33S 05°01' E 011°21'1413.4
2016-Nov-28 18:32S 04°55' E 011°08'  
2016-Nov-23 12:32N 08°09' W 014°23'1414.3
2016-Nov-23 11:33N 08°20' W 014°32'1414.4
2016-Nov-23 10:33N 08°31' W 014°42'1514.6
2016-Nov-23 09:33N 08°42' W 014°51'1514.6
2016-Nov-23 08:33N 08°53' W 015°00'1515.0
2016-Nov-23 07:33N 09°04' W 015°11'1514.9
2016-Nov-23 06:33N 09°15' W 015°21'12014.9
2016-Nov-22 22:31N 10°42' W 016°45'28914.9
2016-Nov-22 03:07N 15°25' W 017°47'  
Track history (hours):
 
Tides and Currents Weather Stations Pressure Air Temp Water Temp Dewpoint Dewpoint Depression Visibility Wind Speed Wind Dir Waves Ship Positions

Monte Toledo

Last reported at 2016-Dec-01 22:33 UTC. Time now 2016-Dec-07 12:27 UTC.
Position S 04°53' E 011°03'.

Length 274 m; draft 14.4 m.

Type: Tanker. MMSI: 255740000.

Date/timePositionNaut miles runAvg speedWind from/ knotsBaromVisibWave heightAir tempDewpointWater temp
2016-Dec-01 22:33S 04°53' E 011°03'1313.1
2016-Dec-01 21:33S 04°59' E 011°15'1313.1
2016-Dec-01 20:32S 05°04' E 011°27'1313.0
2016-Dec-01 19:33S 05°12' E 011°37'  
2016-Nov-29 06:33S 05°28' E 011°56'21 2.2
2016-Nov-28 21:19S 05°14' E 011°41'1013.4
2016-Nov-28 20:33S 05°08' E 011°32'1313.5
2016-Nov-28 19:33S 05°01' E 011°21'1413.4
2016-Nov-28 18:32S 04°55' E 011°08'  
2016-Nov-23 12:32N 08°09' W 014°23'1414.3
2016-Nov-23 11:33N 08°20' W 014°32'1414.4
2016-Nov-23 10:33N 08°31' W 014°42'1514.6
2016-Nov-23 09:33N 08°42' W 014°51'1514.6
2016-Nov-23 08:33N 08°53' W 015°00'1515.0
2016-Nov-23 07:33N 09°04' W 015°11'1514.9
2016-Nov-23 06:33N 09°15' W 015°21'12014.9
2016-Nov-22 22:31N 10°42' W 016°45'28914.9
2016-Nov-22 03:07N 15°25' W 017°47'  

Dump ship's entire track history